createdAt,value
2017-06-23T00:02:03.606Z,43.2
2017-06-23T00:07:03.258Z,42.7
2017-06-23T00:12:03.956Z,42.6
2017-06-23T00:17:03.710Z,42.6
2017-06-23T00:22:03.505Z,42.6
2017-06-23T00:27:03.173Z,42.6
2017-06-23T00:32:03.868Z,42.8
2017-06-23T00:37:03.672Z,42.7
2017-06-23T00:42:03.221Z,42.7
2017-06-23T00:47:03.833Z,42.8
2017-06-23T00:52:03.499Z,42.8
2017-06-23T00:57:03.530Z,42.7
2017-06-23T01:02:03.192Z,42.6
2017-06-23T01:07:03.815Z,42.4
2017-06-23T01:12:03.773Z,42.3
2017-06-23T01:17:03.578Z,42.4
2017-06-23T01:22:03.881Z,42.3
2017-06-23T01:27:03.641Z,42.3
2017-06-23T01:32:03.339Z,42.9
2017-06-23T01:37:03.894Z,42.8
2017-06-23T01:42:03.629Z,42.9
2017-06-23T01:47:03.427Z,42.9
2017-06-23T01:52:03.293Z,43.0
2017-06-23T01:57:03.401Z,43.0
2017-06-23T02:02:03.155Z,43.0
2017-06-23T02:07:03.925Z,43.0
2017-06-23T02:12:03.811Z,43.1
2017-06-23T02:17:04.066Z,43.2
2017-06-23T02:22:03.766Z,43.2
2017-06-23T02:27:03.542Z,43.4
2017-06-23T02:32:03.729Z,43.3
2017-06-23T02:37:03.998Z,43.4
2017-06-23T02:42:03.326Z,43.4
2017-06-23T02:47:16.115Z,43.3
2017-06-23T02:52:03.256Z,43.2
2017-06-23T02:57:03.679Z,43.2
2017-06-23T03:02:23.824Z,43.2
2017-06-23T03:07:03.658Z,42.4
2017-06-23T03:12:03.305Z,43.1
2017-06-23T03:17:28.646Z,43.1
2017-06-23T03:22:03.590Z,43.0
2017-06-23T03:27:03.159Z,42.9
2017-06-23T03:32:25.161Z,42.9
2017-06-23T03:37:03.156Z,42.8
2017-06-23T03:42:03.595Z,42.8
2017-06-23T03:52:03.777Z,42.8
2017-06-23T03:57:03.204Z,42.6
2017-06-23T04:02:26.411Z,42.7
2017-06-23T04:07:03.214Z,42.6
2017-06-23T04:12:03.648Z,42.6
2017-06-23T04:17:28.697Z,42.7
2017-06-23T04:22:03.343Z,42.6
2017-06-23T04:27:03.699Z,42.5
2017-06-23T04:32:28.358Z,42.3
2017-06-23T04:37:03.825Z,42.3
2017-06-23T04:42:03.132Z,42.3
2017-06-23T04:47:23.932Z,42.4
2017-06-23T04:52:03.606Z,42.2
2017-06-23T04:57:03.039Z,42.2
2017-06-23T05:02:28.073Z,42.2
2017-06-23T05:07:03.739Z,41.9
2017-06-23T05:12:03.322Z,41.9
2017-06-23T05:22:03.206Z,41.7
2017-06-23T05:27:03.684Z,41.6
2017-06-23T05:32:24.071Z,42.0
2017-06-23T05:37:03.447Z,41.9
2017-06-23T05:42:03.722Z,41.8
2017-06-23T05:52:03.313Z,41.7
2017-06-23T05:57:03.679Z,41.8
2017-06-23T06:02:27.693Z,41.7
2017-06-23T06:07:03.495Z,42.0
2017-06-23T06:12:03.882Z,41.8
2017-06-23T06:17:05.384Z,42.4
2017-06-23T06:22:03.157Z,42.4
2017-06-23T06:27:03.644Z,42.4
2017-06-23T06:32:23.922Z,42.4
2017-06-23T06:37:03.685Z,42.2
2017-06-23T06:42:03.106Z,42.2
2017-06-23T06:52:03.645Z,42.0
2017-06-23T06:57:03.052Z,42.4
2017-06-23T07:02:25.303Z,42.4
2017-06-23T07:07:03.225Z,42.7
2017-06-23T07:12:03.802Z,42.6
2017-06-23T07:17:19.154Z,42.2
2017-06-23T07:22:03.607Z,43.1
2017-06-23T07:27:03.911Z,43.1
2017-06-23T07:32:23.689Z,42.8
2017-06-23T07:37:03.160Z,44.5
2017-06-23T07:42:03.579Z,43.8
2017-06-23T07:47:33.725Z,43.8
2017-06-23T07:52:03.688Z,43.9
2017-06-23T07:57:03.095Z,44.3
2017-06-23T08:07:03.860Z,43.4
2017-06-23T08:12:03.487Z,43.7
2017-06-23T08:17:28.689Z,43.5
2017-06-23T08:22:03.613Z,43.7
2017-06-23T08:27:03.891Z,43.7
2017-06-23T08:32:32.786Z,43.5
2017-06-23T08:37:03.383Z,43.9
2017-06-23T08:42:03.671Z,43.9
2017-06-23T08:47:21.924Z,43.4
2017-06-23T08:52:03.069Z,43.4
2017-06-23T08:57:03.538Z,43.3
2017-06-23T09:02:22.899Z,43.0
2017-06-23T09:07:03.589Z,43.4
2017-06-23T09:12:03.980Z,43.3
2017-06-23T09:17:24.106Z,43.2
2017-06-23T09:22:03.608Z,43.1
2017-06-23T09:27:03.888Z,43.1
2017-06-23T09:32:23.531Z,43.5
2017-06-23T09:37:03.491Z,44.0
2017-06-23T09:42:03.785Z,44.0
2017-06-23T09:47:26.193Z,43.7
2017-06-23T09:52:03.648Z,43.7
2017-06-23T09:57:03.076Z,43.8
2017-06-23T10:02:23.921Z,43.8
2017-06-23T10:07:03.767Z,43.7
2017-06-23T10:12:03.254Z,43.2
2017-06-23T10:17:22.576Z,43.3
2017-06-23T10:22:03.781Z,43.7
2017-06-23T10:27:03.184Z,43.4
2017-06-23T10:32:24.011Z,43.5
2017-06-23T10:37:03.607Z,43.5
2017-06-23T10:42:03.786Z,43.6
2017-06-23T10:47:24.261Z,43.5
2017-06-23T10:52:03.061Z,43.5
2017-06-23T10:57:03.581Z,43.7
2017-06-23T11:02:22.931Z,43.5
2017-06-23T11:07:03.842Z,43.5
2017-06-23T11:12:03.680Z,43.9
2017-06-23T11:17:23.380Z,43.7
2017-06-23T11:22:03.510Z,43.7
2017-06-23T11:27:03.858Z,43.7
2017-06-23T11:32:26.330Z,43.8
2017-06-23T11:37:03.649Z,43.6
2017-06-23T11:42:03.005Z,43.6
2017-06-23T11:47:28.866Z,43.4
2017-06-23T11:52:03.007Z,43.4
2017-06-23T11:57:03.348Z,43.4
2017-06-23T12:02:28.265Z,43.0
2017-06-23T12:07:03.777Z,43.1
2017-06-23T12:12:03.239Z,43.3
2017-06-23T12:17:28.785Z,42.7
2017-06-23T12:22:03.638Z,42.7
2017-06-23T12:27:03.979Z,43.3
2017-06-23T12:32:23.603Z,42.8
2017-06-23T12:37:03.736Z,42.8
2017-06-23T12:42:03.102Z,42.8
2017-06-23T12:47:25.551Z,42.9
2017-06-23T12:52:03.089Z,43.2
2017-06-23T12:57:03.557Z,43.2
2017-06-23T13:02:24.185Z,43.0
2017-06-23T13:07:03.522Z,43.2
2017-06-23T13:12:03.979Z,43.1
2017-06-23T13:17:29.593Z,43.2
2017-06-23T13:22:03.563Z,43.3
2017-06-23T13:27:03.859Z,43.5
2017-06-23T13:37:03.283Z,42.7
2017-06-23T13:42:03.708Z,43.0
2017-06-23T13:47:24.548Z,43.0
2017-06-23T13:52:03.631Z,43.0
2017-06-23T13:57:03.089Z,42.8
2017-06-23T14:02:21.563Z,42.9
2017-06-23T14:07:03.072Z,42.9
2017-06-23T14:12:03.315Z,42.7
2017-06-23T14:17:24.048Z,42.7
2017-06-23T14:22:03.811Z,42.5
2017-06-23T14:27:03.257Z,42.2
2017-06-23T14:32:33.082Z,42.2
2017-06-23T14:37:03.549Z,41.8
2017-06-23T14:42:03.822Z,40.2
2017-06-23T14:47:28.355Z,40.2
2017-06-23T14:52:03.864Z,37.0
2017-06-23T14:57:03.292Z,36.3
2017-06-23T15:02:20.648Z,36.3
2017-06-23T15:07:03.593Z,35.3
2017-06-23T15:12:03.975Z,33.3
2017-06-23T15:17:26.962Z,33.2
2017-06-23T15:22:03.775Z,31.8
2017-06-23T15:27:03.094Z,31.3
2017-06-23T15:32:21.788Z,30.4
2017-06-23T15:37:03.900Z,29.9
2017-06-23T15:42:03.225Z,29.9
2017-06-23T15:47:22.616Z,29.9
2017-06-23T15:52:03.778Z,29.5
2017-06-23T15:57:03.100Z,29.1
2017-06-23T16:02:19.849Z,29.1
2017-06-23T16:07:03.138Z,28.5
2017-06-23T16:12:03.713Z,28.8
2017-06-23T16:17:20.480Z,28.7
2017-06-23T16:22:03.336Z,28.4
2017-06-23T16:27:03.733Z,28.4
2017-06-23T16:32:21.201Z,28.6
2017-06-23T16:37:03.160Z,28.6
2017-06-23T16:42:03.507Z,28.4
2017-06-23T16:52:03.395Z,29.4
2017-06-23T16:57:03.711Z,29.4
2017-06-23T17:02:16.647Z,29.3
2017-06-23T17:07:03.683Z,29.2
2017-06-23T17:12:03.101Z,29.2
2017-06-23T17:17:16.863Z,29.6
2017-06-23T17:22:03.734Z,29.7
2017-06-23T17:27:03.957Z,29.6
2017-06-23T17:32:15.975Z,30.1
2017-06-23T17:37:03.610Z,30.2
2017-06-23T17:42:03.817Z,30.0
2017-06-23T17:47:14.953Z,31.0
2017-06-23T17:52:03.155Z,30.8
2017-06-23T17:57:03.441Z,31.0
2017-06-23T18:02:14.246Z,31.0
2017-06-23T18:07:03.865Z,31.7
2017-06-23T18:12:03.143Z,32.1
2017-06-23T18:17:22.007Z,32.4
2017-06-23T18:22:03.100Z,37.6
2017-06-23T18:27:03.467Z,37.6
2017-06-23T18:32:23.660Z,36.2
2017-06-23T18:37:03.790Z,35.7
2017-06-23T18:42:03.054Z,38.7
2017-06-23T18:47:18.511Z,39.0
2017-06-23T18:52:03.355Z,39.0
2017-06-23T18:57:03.736Z,39.0
2017-06-23T19:02:24.197Z,39.1
2017-06-23T19:07:03.181Z,39.0
2017-06-23T19:12:03.621Z,39.1
2017-06-23T19:17:26.522Z,39.2
2017-06-23T19:22:03.721Z,39.2
2017-06-23T19:27:03.991Z,39.3
2017-06-23T19:32:16.622Z,39.4
2017-06-23T19:37:03.869Z,39.4
2017-06-23T19:42:03.432Z,39.5
2017-06-23T19:47:23.874Z,39.6
2017-06-23T19:52:03.461Z,39.8
2017-06-23T19:57:03.745Z,39.8
2017-06-23T20:02:21.407Z,39.8
2017-06-23T20:07:03.587Z,39.9
2017-06-23T20:12:03.146Z,39.7
2017-06-23T20:17:12.381Z,39.9
2017-06-23T20:22:03.721Z,39.9
2017-06-23T20:27:03.615Z,39.8
2017-06-23T20:32:12.005Z,40.0
2017-06-23T20:37:03.546Z,39.9
2017-06-23T20:42:03.844Z,40.0
2017-06-23T20:47:05.023Z,40.0
2017-06-23T20:52:03.488Z,40.0
2017-06-23T20:57:04.153Z,40.1
2017-06-23T21:02:03.434Z,40.1
2017-06-23T21:07:03.619Z,40.0
2017-06-23T21:12:03.133Z,40.0
2017-06-23T21:17:04.029Z,40.0
2017-06-23T21:22:03.712Z,40.0
2017-06-23T21:27:03.963Z,40.0
2017-06-23T21:32:03.638Z,40.0
2017-06-23T21:37:03.597Z,40.1
2017-06-23T21:42:03.876Z,40.1
2017-06-23T21:47:03.244Z,39.9
2017-06-23T21:52:03.510Z,39.9
2017-06-23T21:57:03.779Z,40.0
2017-06-23T22:02:03.763Z,40.1
2017-06-23T22:07:03.142Z,40.1
2017-06-23T22:12:03.205Z,40.1
2017-06-23T22:22:03.583Z,39.8
2017-06-23T22:27:03.938Z,40.2
2017-06-23T22:32:03.467Z,40.3
2017-06-23T22:37:03.896Z,40.2
2017-06-23T22:42:03.501Z,40.2
2017-06-23T22:47:03.970Z,40.1
2017-06-23T22:52:03.485Z,40.2
2017-06-23T22:57:03.054Z,40.1
2017-06-23T23:02:03.637Z,40.1
2017-06-23T23:07:03.355Z,40.0
2017-06-23T23:12:03.148Z,40.0
2017-06-23T23:17:03.948Z,40.1
2017-06-23T23:22:03.403Z,39.9
2017-06-23T23:27:03.950Z,39.9
2017-06-23T23:32:03.597Z,39.9
2017-06-23T23:37:03.905Z,40.0
2017-06-23T23:42:03.637Z,39.9
2017-06-23T23:47:03.323Z,39.7
2017-06-23T23:52:03.479Z,39.8
2017-06-23T23:57:03.093Z,39.7
